RJBBFJDG

Guest
Details From RJBB - Kansai Intl
To FJDG - Diego Garcia Nsf
Flight Number -
Tags Generated
Created
Modified
Stats Distance 4,350 nm / 8,057 km
Max Altitude 0 ft / 0 m
Waypoints 6
Social Downloads 0
Likes 0
Share VATSIM

Download

Looking for another format? Having issues loading an existing format? Contact us
Advertisement - Login to hide

Notes

Generated

Route

RJBB R1742 YIN PANDA R2472 FJDG

ID Type Via Altitude Latitude Longitude Leg Dist Tot Dist Heading (true) Name
O RJBB APT - 0 ft / 0 m 34.41738˚ 135.22928˚ - 0 nm - -
R1742 FIX - 0 ft / 0 m 32.83151˚ 130.84058˚ 239 nm 239 nm 248° / 245° -
YIN VOR - 0 ft / 0 m 24.20667˚ 113.41000˚ 1053 nm 1292 nm 245° / 237° YINGDE VOR-DME
PANDA FIX - 0 ft / 0 m 15.45804˚ 100.28254˚ 907 nm 2200 nm 237° / 233° -
R2472 FIX - 0 ft / 0 m -7.30457˚ 72.39700˚ 2149 nm 4350 nm 232° / 230° -
O FJDG APT - 0 ft / 0 m -7.30457˚ 72.39700˚ 0 nm 4350 nm 0° / 180° -

Altitude Profile

Advertisement - Login to hide

Weather


0- 5 10 15 20 25 30 35+ Temperature / ° C

Clouds and Precipitation
Forecast for 2017-12-16 18:00 UTC. Updated a minute ago

Ground ~20,000 ft ~40,000 ft Winds

RJBB

Details ICAO RJBB (KIX)
Name KANSAI INTL
Region Japan
Timezone Asia/Tokyo (UTC+9.0)
Stats Elevation 26 ft / 8 m (AMSL)
Location 34.433619° 135.233598°
Runways 2
Magnetic Variation 7.581° W

METAR

RJBB 161500Z AUTO 28019KT 9999 FEW049 BKN090 06/M05 Q1019 NOSIG

Decode

TAF

TAF TAF AMD RJBB 161503Z 1615/1718 30022KT 9999 FEW025 SCT045

Decode

Departure Runways

ID Width Length Bearing (true) Bearing (mag) Surface Threshold Offset Overrun Length
06L 200 ft / 61 m 13,121 ft / 3,999 m 50.86° 58.44° Asphalt 0 ft / 0 m 200 ft / 61 m
06R 200 ft / 61 m 11,481 ft / 3,499 m 50.86° 58.44° Asphalt 0 ft / 0 m 200 ft / 61 m
24L 200 ft / 61 m 11,481 ft / 3,499 m 230.88° 238.46° Asphalt 0 ft / 0 m 200 ft / 61 m
24R 200 ft / 61 m 13,121 ft / 3,999 m 230.88° 238.46° Asphalt 0 ft / 0 m 200 ft / 61 m

FJDG

Details ICAO FJDG
Name DIEGO GARCIA NSF
Region British Indian Ocean Territory
Timezone Indian/Chagos (UTC+6.0)
Stats Elevation 9 ft / 3 m (AMSL)
Location -7.313268° 72.411090°
Runways 1
Magnetic Variation 6.660° W

METAR

FJDG 161455Z 22007KT 9999 FEW020 SCT080 BKN250 28/26 A2989 RMK SLP119 P0010 60010 8/172 T02810263 52020

Decode

TAF

TAF TAF FJDG 160900Z 1609/1715 VRB06KT 9999 FEW020 SCT080 BKN250 QNH2978INS TX34/1708Z TN24/1623Z

Decode

Destination Runways

ID Width Length Bearing (true) Bearing (mag) Surface Threshold Offset Overrun Length
13 200 ft / 61 m 12,015 ft / 3,662 m 121.89° 128.55° Concrete 0 ft / 0 m 950 ft / 290 m
31 200 ft / 61 m 12,015 ft / 3,662 m 301.88° 308.54° Concrete 0 ft / 0 m 950 ft / 290 m

Approach Navaids

Runway Type Ident Frequency Range Bearing (true) Bearing (mag) Slope Elevation
31 Localiser INKW 109.30 MHz 18 nm / 33 km 301.84° 308.50° - 9 ft / 3 m (AMSL)
31 Glidescope INKW 109.30 MHz 10 nm / 19 km 301.89° 308.55° 3.00° 9 ft / 3 m (AMSL)